createdAt,value
2019-06-10T00:02:26.786Z,18.80
2019-06-10T00:04:54.031Z,18.70
2019-06-10T00:07:21.147Z,18.60
2019-06-10T00:09:51.098Z,18.60
2019-06-10T00:12:17.868Z,18.50
2019-06-10T00:14:45.404Z,18.50
2019-06-10T00:17:12.884Z,18.40
2019-06-10T00:19:40.906Z,18.40
2019-06-10T00:22:08.511Z,18.40
2019-06-10T00:24:37.286Z,18.40
2019-06-10T00:27:06.882Z,18.40
2019-06-10T00:29:33.516Z,18.40
2019-06-10T00:32:03.770Z,18.40
2019-06-10T00:34:31.551Z,18.30
2019-06-10T00:37:01.526Z,18.20
2019-06-10T00:39:27.886Z,18.10
2019-06-10T00:41:55.647Z,18.10
2019-06-10T00:44:22.763Z,18.00
2019-06-10T00:46:51.649Z,18.00
2019-06-10T00:49:18.363Z,17.90
2019-06-10T00:51:45.941Z,17.80
2019-06-10T00:54:15.717Z,17.70
2019-06-10T00:56:43.262Z,17.70
2019-06-10T00:59:13.437Z,17.60
2019-06-10T01:01:41.613Z,17.60
2019-06-10T01:04:12.412Z,17.50
2019-06-10T01:06:39.044Z,17.40
2019-06-10T01:09:06.969Z,17.40
2019-06-10T01:11:34.770Z,17.30
2019-06-10T01:14:03.083Z,17.30
2019-06-10T01:16:31.851Z,17.30
2019-06-10T01:19:01.472Z,17.30
2019-06-10T01:21:28.180Z,17.30
2019-06-10T01:23:55.443Z,17.20
2019-06-10T01:26:22.646Z,17.20
2019-06-10T01:28:51.677Z,17.20
2019-06-10T01:31:23.975Z,17.20
2019-06-10T01:33:48.310Z,17.20
2019-06-10T01:36:16.525Z,17.20
2019-06-10T01:38:43.846Z,17.10
2019-06-10T01:41:12.724Z,17.10
2019-06-10T01:43:40.759Z,17.10
2019-06-10T01:46:08.644Z,17.10
2019-06-10T01:48:44.302Z,17.10
2019-06-10T01:51:07.138Z,17.00
2019-06-10T01:53:37.742Z,17.00
2019-06-10T01:56:05.348Z,17.00
2019-06-10T01:58:32.770Z,17.00
2019-06-10T02:01:23.397Z,17.00
2019-06-10T02:03:52.022Z,17.00
2019-06-10T02:06:22.157Z,17.00
2019-06-10T02:08:47.931Z,17.00
2019-06-10T02:11:17.289Z,17.00
2019-06-10T02:13:44.735Z,17.00
2019-06-10T02:16:14.164Z,16.90
2019-06-10T02:18:42.231Z,17.00
2019-06-10T02:21:13.025Z,17.00
2019-06-10T02:23:41.160Z,17.00
2019-06-10T02:26:08.350Z,17.00
2019-06-10T02:28:36.092Z,17.00
2019-06-10T02:31:04.012Z,16.90
2019-06-10T02:33:36.012Z,16.90
2019-06-10T02:36:03.787Z,16.90
2019-06-10T02:38:35.442Z,16.90
2019-06-10T02:40:58.602Z,16.90
2019-06-10T02:43:32.235Z,16.90
2019-06-10T02:45:57.152Z,16.90
2019-06-10T02:48:30.294Z,16.90
2019-06-10T02:51:06.142Z,16.90
2019-06-10T02:53:36.029Z,16.80
2019-06-10T02:56:04.404Z,16.80
2019-06-10T02:58:38.469Z,16.80
2019-06-10T03:01:04.242Z,16.80
2019-06-10T03:03:39.274Z,16.70
2019-06-10T03:05:59.855Z,16.80
2019-06-10T03:08:31.343Z,16.70
2019-06-10T03:10:56.273Z,16.70
2019-06-10T03:13:25.193Z,16.70
2019-06-10T03:16:13.022Z,16.70
2019-06-10T03:18:40.212Z,16.80
2019-06-10T03:21:07.032Z,16.80
2019-06-10T03:23:34.149Z,16.70
2019-06-10T03:26:04.198Z,16.70
2019-06-10T03:28:32.093Z,16.70
2019-06-10T03:30:59.333Z,16.60
2019-06-10T03:33:34.497Z,16.70
2019-06-10T03:35:55.948Z,16.60
2019-06-10T03:38:26.460Z,16.60
2019-06-10T03:40:52.606Z,16.60
2019-06-10T03:43:21.436Z,16.60
2019-06-10T03:45:49.548Z,16.60
2019-06-10T03:48:17.142Z,16.70
2019-06-10T03:50:44.458Z,16.70
2019-06-10T03:53:13.023Z,16.70
2019-06-10T03:55:43.632Z,16.80
2019-06-10T03:58:12.570Z,16.80
2019-06-10T04:00:43.042Z,16.70
2019-06-10T04:03:12.142Z,16.70
2019-06-10T04:05:42.155Z,16.60
2019-06-10T04:08:09.021Z,16.60
2019-06-10T04:10:36.683Z,16.60
2019-06-10T04:13:03.955Z,16.60
2019-06-10T04:15:32.586Z,16.60
2019-06-10T04:18:00.266Z,16.70
2019-06-10T04:20:28.299Z,16.70
2019-06-10T04:22:56.370Z,16.70
2019-06-10T04:25:27.617Z,16.80
2019-06-10T04:27:52.567Z,17.20
2019-06-10T04:30:20.115Z,17.60
2019-06-10T04:32:48.019Z,18.00
2019-06-10T04:35:15.526Z,18.40
2019-06-10T04:37:42.971Z,18.70
2019-06-10T04:40:13.158Z,19.00
2019-06-10T04:42:40.265Z,19.50
2019-06-10T04:45:08.215Z,19.90
2019-06-10T04:47:35.117Z,20.00
2019-06-10T04:50:03.368Z,19.80
2019-06-10T04:52:32.809Z,19.50
2019-06-10T04:55:02.576Z,19.80
2019-06-10T04:57:29.669Z,20.00
2019-06-10T04:59:56.963Z,19.90
2019-06-10T05:02:26.707Z,19.60
2019-06-10T05:04:53.635Z,19.50
2019-06-10T05:07:23.631Z,19.40
2019-06-10T05:09:52.388Z,19.60
2019-06-10T05:12:19.237Z,19.70
2019-06-10T05:14:46.753Z,19.90
2019-06-10T05:17:13.724Z,20.10
2019-06-10T05:19:42.873Z,20.20
2019-06-10T05:22:09.745Z,20.50
2019-06-10T05:24:37.192Z,20.60
2019-06-10T05:27:04.123Z,20.50
2019-06-10T05:29:31.262Z,20.50
2019-06-10T05:31:58.639Z,20.50
2019-06-10T05:34:27.191Z,20.40
2019-06-10T05:36:55.047Z,20.40
2019-06-10T05:39:24.324Z,20.10
2019-06-10T05:41:53.050Z,20.20
2019-06-10T05:44:25.426Z,19.90
2019-06-10T05:46:52.989Z,19.40
2019-06-10T05:49:20.054Z,19.20
2019-06-10T05:51:47.708Z,19.10
2019-06-10T05:54:19.057Z,19.00
2019-06-10T05:56:46.475Z,19.10
2019-06-10T05:59:13.768Z,19.10
2019-06-10T06:01:43.218Z,19.10
2019-06-10T06:04:12.459Z,19.20
2019-06-10T06:06:41.834Z,19.30
2019-06-10T06:09:08.351Z,19.40
2019-06-10T06:11:38.214Z,19.30
2019-06-10T06:14:05.898Z,19.30
2019-06-10T06:16:34.847Z,19.20
2019-06-10T06:19:03.282Z,19.00
2019-06-10T06:21:38.783Z,19.00
2019-06-10T06:23:59.438Z,19.20
2019-06-10T06:26:28.363Z,19.30
2019-06-10T06:28:59.239Z,19.60
2019-06-10T06:31:26.556Z,19.60
2019-06-10T06:33:53.706Z,19.60
2019-06-10T06:36:22.573Z,19.50
2019-06-10T06:38:52.857Z,19.60
2019-06-10T06:41:22.531Z,19.60
2019-06-10T06:43:49.601Z,19.70
2019-06-10T06:46:17.070Z,19.70
2019-06-10T06:48:44.168Z,19.70
2019-06-10T06:51:13.068Z,19.90
2019-06-10T06:53:48.368Z,20.10
2019-06-10T06:56:12.596Z,20.40
2019-06-10T06:58:40.119Z,20.80
2019-06-10T07:01:11.013Z,21.40
2019-06-10T07:03:38.628Z,21.90
2019-06-10T07:06:07.451Z,22.40
2019-06-10T07:08:38.107Z,22.80
2019-06-10T07:11:07.102Z,23.60
2019-06-10T07:13:39.510Z,24.60
2019-06-10T07:16:06.589Z,25.00
2019-06-10T07:18:41.214Z,25.40
2019-06-10T07:21:04.330Z,26.10
2019-06-10T07:23:35.419Z,25.90
2019-06-10T07:26:02.343Z,25.50
2019-06-10T07:28:34.020Z,25.40
2019-06-10T07:31:00.361Z,25.20
2019-06-10T07:33:28.364Z,25.70
2019-06-10T07:35:56.601Z,26.00
2019-06-10T07:38:26.327Z,26.40
2019-06-10T07:40:56.640Z,26.60
2019-06-10T07:43:24.588Z,26.90
2019-06-10T07:45:53.363Z,27.30
2019-06-10T07:48:22.279Z,26.90
2019-06-10T07:50:53.234Z,25.80
2019-06-10T07:53:22.209Z,25.10
2019-06-10T07:55:49.578Z,24.80
2019-06-10T07:58:16.724Z,24.60
2019-06-10T08:00:48.154Z,24.40
2019-06-10T08:03:13.028Z,24.30
2019-06-10T08:05:43.245Z,24.00
2019-06-10T08:08:09.348Z,23.70
2019-06-10T08:10:37.037Z,23.60
2019-06-10T08:13:04.796Z,23.30
2019-06-10T08:15:32.623Z,22.90
2019-06-10T08:17:59.921Z,22.60
2019-06-10T08:20:45.793Z,22.60
2019-06-10T08:23:17.294Z,22.70
2019-06-10T08:25:50.997Z,23.00
2019-06-10T08:28:14.478Z,23.20
2019-06-10T08:30:42.921Z,23.40
2019-06-10T08:33:13.585Z,24.00
2019-06-10T08:35:49.468Z,25.30
2019-06-10T08:38:12.283Z,26.40
2019-06-10T08:40:40.506Z,26.70
2019-06-10T08:43:08.962Z,26.50
2019-06-10T08:45:36.912Z,26.90
2019-06-10T08:48:04.626Z,26.90
2019-06-10T08:50:33.688Z,26.40
2019-06-10T08:53:14.000Z,26.50
2019-06-10T08:55:33.326Z,26.80
2019-06-10T08:58:02.570Z,26.90
2019-06-10T09:00:30.358Z,26.80
2019-06-10T09:02:57.630Z,26.70
2019-06-10T09:05:24.960Z,26.40
2019-06-10T09:07:54.506Z,25.70
2019-06-10T09:10:22.773Z,25.70
2019-06-10T09:12:54.190Z,25.50
2019-06-10T09:15:20.120Z,25.60
2019-06-10T09:17:52.061Z,25.50
2019-06-10T09:20:22.779Z,25.10
2019-06-10T09:23:11.196Z,25.10
2019-06-10T09:25:22.438Z,24.80
2019-06-10T09:27:51.802Z,24.60
2019-06-10T09:30:18.793Z,24.60
2019-06-10T09:32:52.859Z,24.60
2019-06-10T09:35:19.644Z,24.60
2019-06-10T09:37:49.982Z,24.80
2019-06-10T09:40:17.344Z,24.90
2019-06-10T09:42:47.661Z,24.70
2019-06-10T09:45:14.342Z,24.60
2019-06-10T09:47:45.635Z,25.00
2019-06-10T09:50:12.533Z,25.30
2019-06-10T09:52:47.107Z,25.60
2019-06-10T09:55:12.747Z,26.30
2019-06-10T09:57:43.399Z,26.70
2019-06-10T10:00:12.545Z,26.40
2019-06-10T10:02:44.901Z,26.60
2019-06-10T10:05:10.322Z,26.10
2019-06-10T10:07:38.172Z,26.00
2019-06-10T10:10:09.097Z,26.20
2019-06-10T10:12:37.870Z,26.30
2019-06-10T10:15:23.577Z,26.40
2019-06-10T10:17:35.039Z,26.70
2019-06-10T10:20:03.258Z,27.10
2019-06-10T10:22:34.195Z,27.60
2019-06-10T10:25:03.000Z,27.90
2019-06-10T10:27:32.338Z,28.30
2019-06-10T10:29:59.926Z,28.90
2019-06-10T10:32:26.868Z,29.80
2019-06-10T10:34:56.369Z,31.40
2019-06-10T10:37:23.353Z,33.10
2019-06-10T10:39:53.812Z,34.60
2019-06-10T10:42:19.240Z,35.70
2019-06-10T10:44:49.985Z,36.00
2019-06-10T10:47:16.238Z,36.10
2019-06-10T10:49:44.989Z,36.50
2019-06-10T10:52:12.958Z,36.80
2019-06-10T10:54:42.689Z,37.10
2019-06-10T10:57:09.852Z,37.50
2019-06-10T10:59:37.920Z,38.10
2019-06-10T11:02:05.008Z,37.60
2019-06-10T11:04:32.992Z,36.90
2019-06-10T11:07:01.170Z,36.20
2019-06-10T11:09:29.914Z,35.60
2019-06-10T11:12:02.348Z,34.20
2019-06-10T11:14:30.161Z,32.90
2019-06-10T11:16:58.923Z,32.10
2019-06-10T11:19:26.304Z,31.60
2019-06-10T11:21:53.704Z,30.70
2019-06-10T11:24:35.509Z,30.10
2019-06-10T11:26:53.190Z,29.50
2019-06-10T11:29:20.792Z,29.00
2019-06-10T11:31:48.475Z,28.80
2019-06-10T11:34:19.755Z,28.30
2019-06-10T11:36:47.973Z,27.20
2019-06-10T11:39:15.880Z,26.50
2019-06-10T11:41:43.955Z,26.10
2019-06-10T11:44:11.459Z,25.70
2019-06-10T11:46:38.970Z,25.30
2019-06-10T11:49:06.511Z,25.10
2019-06-10T11:51:34.228Z,25.20
2019-06-10T11:54:03.459Z,25.60
2019-06-10T11:56:33.656Z,26.40
2019-06-10T11:59:09.195Z,28.00
2019-06-10T12:01:30.862Z,29.90
2019-06-10T12:04:03.575Z,31.40
2019-06-10T12:06:29.362Z,32.00
2019-06-10T12:08:59.431Z,31.70
2019-06-10T12:11:27.158Z,31.30
2019-06-10T12:14:01.885Z,31.80
2019-06-10T12:18:54.276Z,32.70
2019-06-10T12:21:23.607Z,31.90
2019-06-10T12:23:55.974Z,31.60
2019-06-10T12:26:22.505Z,30.80
2019-06-10T12:28:50.724Z,30.10
2019-06-10T12:31:18.918Z,29.50
2019-06-10T12:33:46.245Z,29.50
2019-06-10T12:36:13.579Z,29.10
2019-06-10T12:38:43.424Z,28.30
2019-06-10T12:41:11.130Z,27.90
2019-06-10T12:43:39.224Z,27.90
2019-06-10T12:46:06.376Z,27.60
2019-06-10T12:48:34.444Z,27.40
2019-06-10T12:51:06.361Z,27.50
2019-06-10T12:53:32.593Z,27.50
2019-06-10T12:56:06.889Z,27.50
2019-06-10T12:58:29.912Z,27.70
2019-06-10T13:00:57.340Z,27.90
2019-06-10T13:03:24.722Z,27.90
2019-06-10T13:05:53.283Z,27.80
2019-06-10T13:08:23.902Z,28.00
2019-06-10T13:10:50.240Z,28.00
2019-06-10T13:13:17.777Z,27.80
2019-06-10T13:15:45.454Z,27.00
2019-06-10T13:18:18.999Z,26.80
2019-06-10T13:20:43.370Z,26.80
2019-06-10T13:23:22.408Z,26.90
2019-06-10T13:25:53.463Z,27.10
2019-06-10T13:28:10.451Z,27.40
2019-06-10T13:30:37.891Z,27.60
2019-06-10T13:33:10.938Z,27.50
2019-06-10T13:35:35.882Z,27.30
2019-06-10T13:38:08.419Z,27.00
2019-06-10T13:40:36.709Z,26.90
2019-06-10T13:43:04.104Z,26.80
2019-06-10T13:45:33.241Z,26.60
2019-06-10T13:48:03.772Z,26.30
2019-06-10T13:50:32.702Z,26.00
2019-06-10T13:53:01.140Z,25.80
2019-06-10T13:55:29.465Z,25.40
2019-06-10T13:57:59.530Z,25.00
2019-06-10T14:00:41.756Z,24.70
2019-06-10T14:02:56.825Z,24.30
2019-06-10T14:05:24.380Z,24.10
2019-06-10T14:07:55.047Z,23.80
2019-06-10T14:10:23.221Z,23.60
2019-06-10T14:12:52.622Z,23.30
2019-06-10T14:15:22.395Z,23.00
2019-06-10T14:17:49.263Z,22.80
2019-06-10T14:20:18.099Z,22.40
2019-06-10T14:22:45.994Z,22.30
2019-06-10T14:25:16.843Z,22.30
2019-06-10T14:27:43.507Z,22.40
2019-06-10T14:30:14.140Z,22.50
2019-06-10T14:32:42.556Z,22.60
2019-06-10T14:35:15.257Z,22.60
2019-06-10T14:37:43.010Z,22.70
2019-06-10T14:40:18.523Z,22.60
2019-06-10T14:42:42.908Z,22.50
2019-06-10T14:45:13.540Z,22.30
2019-06-10T14:47:43.000Z,22.20
2019-06-10T14:50:11.534Z,22.10
2019-06-10T14:52:39.275Z,21.90
2019-06-10T14:55:11.899Z,21.90
2019-06-10T14:57:39.651Z,21.90
2019-06-10T15:00:09.978Z,21.90
2019-06-10T15:02:37.220Z,22.00
2019-06-10T15:05:05.009Z,22.00
2019-06-10T15:07:33.076Z,22.20
2019-06-10T15:10:03.462Z,22.30
2019-06-10T15:12:32.615Z,22.30
2019-06-10T15:14:59.824Z,22.30
2019-06-10T15:17:27.019Z,22.10
2019-06-10T15:19:54.668Z,21.80
2019-06-10T15:22:23.563Z,21.50
2019-06-10T15:24:53.271Z,21.10
2019-06-10T15:27:29.683Z,20.90
2019-06-10T15:29:52.422Z,20.80
2019-06-10T15:32:31.612Z,20.70
2019-06-10T15:34:49.050Z,20.80
2019-06-10T15:37:18.589Z,20.70
2019-06-10T15:39:45.387Z,20.70
2019-06-10T15:42:13.540Z,20.70
2019-06-10T15:44:52.058Z,20.80
2019-06-10T15:47:13.818Z,20.80
2019-06-10T15:49:40.005Z,20.70
2019-06-10T15:52:07.266Z,20.60
2019-06-10T15:54:34.942Z,20.60
2019-06-10T15:57:03.858Z,20.60
2019-06-10T15:59:31.833Z,20.50
2019-06-10T16:01:59.495Z,20.40
2019-06-10T16:04:29.733Z,20.30
2019-06-10T16:06:55.864Z,20.20
2019-06-10T16:09:23.458Z,20.10
2019-06-10T16:11:53.500Z,20.30
2019-06-10T16:14:21.345Z,20.40
2019-06-10T16:16:52.421Z,20.60
2019-06-10T16:19:19.699Z,20.80
2019-06-10T16:21:47.739Z,21.00
2019-06-10T16:24:15.540Z,21.10
2019-06-10T16:26:43.951Z,21.10
2019-06-10T16:29:12.331Z,21.30
2019-06-10T16:31:39.531Z,21.50
2019-06-10T16:34:08.591Z,21.40
2019-06-10T16:36:36.004Z,21.40
2019-06-10T16:39:06.834Z,21.30
2019-06-10T16:41:37.286Z,21.10
2019-06-10T16:44:05.053Z,21.00
2019-06-10T16:46:32.652Z,21.00
2019-06-10T16:49:00.233Z,20.70
2019-06-10T16:51:27.161Z,20.70
2019-06-10T16:53:55.909Z,20.70
2019-06-10T16:56:25.716Z,20.60
2019-06-10T16:58:52.808Z,20.40
2019-06-10T17:01:23.548Z,20.30
2019-06-10T17:03:49.430Z,20.10
2019-06-10T17:06:17.469Z,20.00
2019-06-10T17:08:46.018Z,19.90
2019-06-10T17:11:13.302Z,19.80
2019-06-10T17:13:42.305Z,19.60
2019-06-10T17:16:09.948Z,19.50
2019-06-10T17:18:37.068Z,19.50
2019-06-10T17:21:04.862Z,19.40
2019-06-10T17:23:36.320Z,19.30
2019-06-10T17:26:00.739Z,19.30
2019-06-10T17:28:31.425Z,19.10
2019-06-10T17:30:57.911Z,19.00
2019-06-10T17:33:27.908Z,18.90
2019-06-10T17:35:56.168Z,18.80
2019-06-10T17:38:24.724Z,18.80
2019-06-10T17:40:52.274Z,18.80
2019-06-10T17:43:20.924Z,18.80
2019-06-10T17:45:48.517Z,18.70
2019-06-10T17:48:15.901Z,18.70
2019-06-10T17:50:43.453Z,18.60
2019-06-10T17:53:12.763Z,18.60
2019-06-10T17:55:41.285Z,18.50
2019-06-10T17:58:29.338Z,18.50
2019-06-10T18:00:44.948Z,18.50
2019-06-10T18:03:13.211Z,18.50
2019-06-10T18:05:43.215Z,18.50
2019-06-10T18:08:10.097Z,18.60
2019-06-10T18:10:37.097Z,18.60
2019-06-10T18:13:14.009Z,18.60
2019-06-10T18:15:36.859Z,18.70
2019-06-10T18:18:04.511Z,18.70
2019-06-10T18:20:34.011Z,18.70
2019-06-10T18:23:02.749Z,18.60
2019-06-10T18:25:30.869Z,18.60
2019-06-10T18:27:59.181Z,18.70
2019-06-10T18:30:27.652Z,18.70
2019-06-10T18:32:54.654Z,18.70
2019-06-10T18:35:22.341Z,18.60
2019-06-10T18:37:52.888Z,18.60
2019-06-10T18:40:23.923Z,18.60
2019-06-10T18:42:52.304Z,18.70
2019-06-10T18:45:23.173Z,18.70
2019-06-10T18:47:52.990Z,18.70
2019-06-10T18:50:25.990Z,18.70
2019-06-10T18:52:53.885Z,18.80
2019-06-10T18:55:22.581Z,18.80
2019-06-10T18:57:52.876Z,18.70
2019-06-10T19:00:23.033Z,18.60
2019-06-10T19:03:08.223Z,18.70
2019-06-10T19:05:22.405Z,18.70
2019-06-10T19:07:49.676Z,18.80
2019-06-10T19:10:23.133Z,18.80
2019-06-10T19:12:53.000Z,18.70
2019-06-10T19:15:21.385Z,18.70
2019-06-10T19:17:49.583Z,18.70
2019-06-10T19:20:18.534Z,18.70
2019-06-10T19:22:45.923Z,18.70
2019-06-10T19:25:13.458Z,18.70
2019-06-10T19:27:44.252Z,18.70
2019-06-10T19:30:10.898Z,18.80
2019-06-10T19:32:39.647Z,18.70
2019-06-10T19:35:07.795Z,18.70
2019-06-10T19:37:36.121Z,18.70
2019-06-10T19:40:05.031Z,18.60
2019-06-10T19:42:34.430Z,18.50
2019-06-10T19:45:07.002Z,18.40
2019-06-10T19:47:34.628Z,18.30
2019-06-10T19:50:02.978Z,18.20
2019-06-10T19:52:32.521Z,18.20
2019-06-10T19:55:02.646Z,18.20
2019-06-10T19:57:32.395Z,18.10
2019-06-10T20:00:10.516Z,18.10
2019-06-10T20:02:32.618Z,18.10
2019-06-10T20:05:02.084Z,18.10
2019-06-10T20:07:29.024Z,18.10
2019-06-10T20:09:56.855Z,18.20
2019-06-10T20:12:24.048Z,18.10
2019-06-10T20:14:52.884Z,18.10
2019-06-10T20:17:22.614Z,18.10
2019-06-10T20:19:49.476Z,18.00
2019-06-10T20:22:16.869Z,17.90
2019-06-10T20:24:46.633Z,17.90
2019-06-10T20:27:13.289Z,17.90
2019-06-10T20:29:42.584Z,17.80
2019-06-10T20:32:09.661Z,17.80
2019-06-10T20:34:37.161Z,17.80
2019-06-10T20:37:04.843Z,17.80
2019-06-10T20:39:32.988Z,17.80
2019-06-10T20:42:02.798Z,17.80
2019-06-10T20:44:32.471Z,17.90
2019-06-10T20:46:59.248Z,17.90
2019-06-10T20:49:26.985Z,17.90
2019-06-10T20:52:07.118Z,17.90
2019-06-10T20:54:24.034Z,17.90
2019-06-10T20:56:53.313Z,17.80
2019-06-10T20:59:24.901Z,17.90
2019-06-10T21:01:50.676Z,17.90
2019-06-10T21:04:18.676Z,17.90
2019-06-10T21:06:47.519Z,17.90
2019-06-10T21:09:16.689Z,17.80
2019-06-10T21:11:47.844Z,17.70
2019-06-10T21:14:12.937Z,17.70
2019-06-10T21:16:40.414Z,17.50
2019-06-10T21:19:07.424Z,17.50
2019-06-10T21:21:36.003Z,17.30
2019-06-10T21:24:03.227Z,17.20
2019-06-10T21:26:32.435Z,17.10
2019-06-10T21:28:59.796Z,17.00
2019-06-10T21:31:29.523Z,17.00
2019-06-10T21:33:56.106Z,16.90
2019-06-10T21:36:23.287Z,16.80
2019-06-10T21:38:51.853Z,16.70
2019-06-10T21:41:20.045Z,16.70
2019-06-10T21:43:51.728Z,16.60
2019-06-10T21:46:17.082Z,16.60
2019-06-10T21:48:46.125Z,16.50
2019-06-10T21:51:13.780Z,16.50
2019-06-10T21:53:40.683Z,16.50
2019-06-10T21:56:07.702Z,16.50
2019-06-10T21:58:34.916Z,16.50
2019-06-10T22:01:12.516Z,16.50
2019-06-10T22:03:32.247Z,16.60
2019-06-10T22:06:00.064Z,16.60
2019-06-10T22:08:27.431Z,16.60
2019-06-10T22:10:56.418Z,16.60
2019-06-10T22:13:24.198Z,16.60
2019-06-10T22:15:54.800Z,16.60
2019-06-10T22:18:22.838Z,16.70
2019-06-10T22:20:51.561Z,16.70
2019-06-10T22:23:19.155Z,16.60
2019-06-10T22:25:46.846Z,16.60
2019-06-10T22:28:14.010Z,16.60
2019-06-10T22:30:43.130Z,16.70
2019-06-10T22:33:12.197Z,16.70
2019-06-10T22:35:38.776Z,16.70
2019-06-10T22:38:06.411Z,16.70
2019-06-10T22:40:33.595Z,16.70
2019-06-10T22:43:03.127Z,16.70
2019-06-10T22:45:32.142Z,16.70
2019-06-10T22:47:59.105Z,16.70
2019-06-10T22:50:26.243Z,16.70
2019-06-10T22:52:54.538Z,16.60
2019-06-10T22:55:23.858Z,16.70
2019-06-10T22:57:55.674Z,16.70
2019-06-10T23:00:22.236Z,16.70
2019-06-10T23:02:49.891Z,16.70
2019-06-10T23:05:18.627Z,16.70
2019-06-10T23:07:46.135Z,16.70
2019-06-10T23:10:13.634Z,16.70
2019-06-10T23:12:43.071Z,16.60
2019-06-10T23:15:12.924Z,16.60
2019-06-10T23:17:42.239Z,16.50
2019-06-10T23:20:09.544Z,16.60
2019-06-10T23:22:36.638Z,16.50
2019-06-10T23:25:04.046Z,16.50
2019-06-10T23:27:32.865Z,16.50
2019-06-10T23:30:07.316Z,16.50
2019-06-10T23:32:32.681Z,16.50
2019-06-10T23:35:01.103Z,16.50
2019-06-10T23:37:28.624Z,16.50
2019-06-10T23:39:56.846Z,16.50
2019-06-10T23:42:24.383Z,16.50
2019-06-10T23:44:51.471Z,16.50
2019-06-10T23:47:18.948Z,16.50
2019-06-10T23:49:46.334Z,16.50
2019-06-10T23:52:13.797Z,16.50
2019-06-10T23:54:41.267Z,16.50
2019-06-10T23:57:08.979Z,16.50
2019-06-10T23:59:36.124Z,16.50
